Wawina, Minnesota
Current Conditions -  °F | °C
As of 2:17 AM on Friday 24 Oct 2014 (Local Time) from KCOQ Reporting Station
Haze Haze  
Wind Chill: 44°   Ceiling: 200
Heat Index: 48°   Visibility: 2.5mi
Dew Point: 46°   Wind: 9mph
Humidity: 93%   Direction: 190°S
Pressure: 29.92"   Gusts: NA
Location:  46.9584°N, 92.9445°W
Report Text: KCOQ 240717Z AUTO 19008KT 2 1/2SM BR OVC002 09/08 A2992 RMK AO2
Loading
Personal Weather Stations






























Interactive Weather Map
Tropical Storm Tracking
New forecast layout! Learn more

10-Day Weather Forecast

Advertisements
Track Severe Weather on mobile